sensor_id;sensor_type;location;lat;lon;timestamp;pressure;altitude;pressure_sealevel;temperature;humidity
67052;BME280;53957;47.222;18.670;2022-09-12T00:01:55;100078.97;;;13.96;100.00
67052;BME280;53957;47.222;18.670;2022-09-12T00:05:18;100081.75;;;13.91;100.00
67052;BME280;53957;47.222;18.670;2022-09-12T00:08:21;100078.78;;;13.93;100.00
67052;BME280;53957;47.222;18.670;2022-09-12T00:11:25;100081.56;;;13.88;100.00
67052;BME280;53957;47.222;18.670;2022-09-12T00:14:27;100085.09;;;13.97;100.00
67052;BME280;53957;47.222;18.670;2022-09-12T00:17:33;100079.03;;;13.82;100.00
67052;BME280;53957;47.222;18.670;2022-09-12T00:20:41;100077.03;;;13.88;100.00
67052;BME280;53957;47.222;18.670;2022-09-12T00:23:44;100086.69;;;13.98;100.00
67052;BME280;53957;47.222;18.670;2022-09-12T00:26:47;100083.53;;;13.96;100.00
67052;BME280;53957;47.222;18.670;2022-09-12T00:29:50;100084.19;;;14.01;100.00
67052;BME280;53957;47.222;18.670;2022-09-12T00:32:53;100081.78;;;14.00;100.00
67052;BME280;53957;47.222;18.670;2022-09-12T00:35:56;100082.56;;;13.92;100.00
67052;BME280;53957;47.222;18.670;2022-09-12T00:38:59;100073.06;;;13.85;100.00
67052;BME280;53957;47.222;18.670;2022-09-12T00:42:02;100074.84;;;13.90;100.00
67052;BME280;53957;47.222;18.670;2022-09-12T00:45:05;100073.59;;;13.96;100.00
67052;BME280;53957;47.222;18.670;2022-09-12T00:48:17;100078.91;;;13.88;100.00
67052;BME280;53957;47.222;18.670;2022-09-12T00:51:23;100072.44;;;13.89;100.00
67052;BME280;53957;47.222;18.670;2022-09-12T00:54:29;100072.31;;;13.94;100.00
67052;BME280;53957;47.222;18.670;2022-09-12T00:58:02;100066.69;;;14.04;100.00
67052;BME280;53957;47.222;18.670;2022-09-12T01:01:03;100066.34;;;13.97;100.00
67052;BME280;53957;47.222;18.670;2022-09-12T01:04:08;100071.66;;;13.88;100.00
67052;BME280;53957;47.222;18.670;2022-09-12T01:07:12;100066.12;;;13.84;100.00
67052;BME280;53957;47.222;18.670;2022-09-12T01:10:17;100062.03;;;13.87;100.00
67052;BME280;53957;47.222;18.670;2022-09-12T01:13:21;100062.16;;;13.82;100.00
67052;BME280;53957;47.222;18.670;2022-09-12T01:16:24;100075.72;;;13.77;100.00
67052;BME280;53957;47.222;18.670;2022-09-12T01:36:26;100058.47;;;13.69;100.00
67052;BME280;53957;47.222;18.670;2022-09-12T01:46:07;100065.41;;;13.70;100.00
67052;BME280;53957;47.222;18.670;2022-09-12T01:49:19;100060.72;;;13.53;100.00
67052;BME280;53957;47.222;18.670;2022-09-12T01:52:28;100061.28;;;13.64;100.00
67052;BME280;53957;47.222;18.670;2022-09-12T01:55:41;100069.09;;;13.51;100.00
67052;BME280;53957;47.222;18.670;2022-09-12T01:59:14;100074.81;;;13.59;100.00
67052;BME280;53957;47.222;18.670;2022-09-12T02:02:20;100077.94;;;13.52;100.00
67052;BME280;53957;47.222;18.670;2022-09-12T02:05:33;100070.94;;;13.42;100.00
67052;BME280;53957;47.222;18.670;2022-09-12T02:08:38;100078.47;;;13.40;100.00
67052;BME280;53957;47.222;18.670;2022-09-12T02:11:43;100082.62;;;13.46;100.00
67052;BME280;53957;47.222;18.670;2022-09-12T02:14:53;100072.13;;;13.36;100.00
67052;BME280;53957;47.222;18.670;2022-09-12T02:18:01;100082.62;;;13.46;100.00
67052;BME280;53957;47.222;18.670;2022-09-12T02:21:05;100078.06;;;13.33;100.00
67052;BME280;53957;47.222;18.670;2022-09-12T02:24:11;100080.44;;;13.34;100.00
67052;BME280;53957;47.222;18.670;2022-09-12T02:30:26;100073.69;;;13.37;100.00
67052;BME280;53957;47.222;18.670;2022-09-12T02:40:26;100066.75;;;13.36;100.00
67052;BME280;53957;47.222;18.670;2022-09-12T02:43:29;100064.03;;;13.27;100.00
67052;BME280;53957;47.222;18.670;2022-09-12T02:46:45;100067.63;;;13.23;100.00
67052;BME280;53957;47.222;18.670;2022-09-12T02:49:50;100064.44;;;13.20;100.00
67052;BME280;53957;47.222;18.670;2022-09-12T02:52:54;100066.81;;;13.22;100.00
67052;BME280;53957;47.222;18.670;2022-09-12T02:56:03;100063.75;;;13.15;100.00
67052;BME280;53957;47.222;18.670;2022-09-12T02:59:10;100058.88;;;13.17;100.00
67052;BME280;53957;47.222;18.670;2022-09-12T03:02:29;100059.88;;;13.21;100.00
67052;BME280;53957;47.222;18.670;2022-09-12T03:05:42;100067.25;;;13.15;100.00
67052;BME280;53957;47.222;18.670;2022-09-12T03:18:57;100075.97;;;13.07;100.00
67052;BME280;53957;47.222;18.670;2022-09-12T03:28:25;100087.25;;;12.95;100.00
67052;BME280;53957;47.222;18.670;2022-09-12T03:31:28;100093.00;;;12.88;100.00
67052;BME280;53957;47.222;18.670;2022-09-12T03:34:31;100088.78;;;12.96;100.00
67052;BME280;53957;47.222;18.670;2022-09-12T03:37:34;100092.50;;;12.86;100.00
67052;BME280;53957;47.222;18.670;2022-09-12T03:40:38;100094.37;;;12.86;100.00
67052;BME280;53957;47.222;18.670;2022-09-12T03:43:41;100082.97;;;12.80;100.00
67052;BME280;53957;47.222;18.670;2022-09-12T03:46:44;100077.94;;;12.79;100.00
67052;BME280;53957;47.222;18.670;2022-09-12T03:49:46;100085.06;;;12.83;100.00
67052;BME280;53957;47.222;18.670;2022-09-12T03:52:49;100086.78;;;12.79;100.00
67052;BME280;53957;47.222;18.670;2022-09-12T03:55:52;100083.59;;;12.77;100.00
67052;BME280;53957;47.222;18.670;2022-09-12T03:58:55;100090.34;;;12.75;100.00
67052;BME280;53957;47.222;18.670;2022-09-12T04:01:58;100083.31;;;12.65;100.00
67052;BME280;53957;47.222;18.670;2022-09-12T04:05:01;100089.84;;;12.72;100.00
67052;BME280;53957;47.222;18.670;2022-09-12T04:08:04;100090.19;;;12.57;100.00
67052;BME280;53957;47.222;18.670;2022-09-12T04:11:11;100106.62;;;12.50;100.00
67052;BME280;53957;47.222;18.670;2022-09-12T04:14:14;100089.25;;;12.62;100.00
67052;BME280;53957;47.222;18.670;2022-09-12T04:17:17;100100.78;;;12.48;100.00
67052;BME280;53957;47.222;18.670;2022-09-12T04:20:20;100103.84;;;12.42;100.00
67052;BME280;53957;47.222;18.670;2022-09-12T04:23:23;100097.59;;;12.46;100.00
67052;BME280;53957;47.222;18.670;2022-09-12T04:26:25;100094.53;;;12.39;100.00
67052;BME280;53957;47.222;18.670;2022-09-12T04:29:33;100087.41;;;12.48;100.00
67052;BME280;53957;47.222;18.670;2022-09-12T04:32:37;100087.31;;;12.53;100.00
67052;BME280;53957;47.222;18.670;2022-09-12T04:35:40;100095.44;;;12.48;100.00
67052;BME280;53957;47.222;18.670;2022-09-12T04:38:46;100086.22;;;12.54;100.00
67052;BME280;53957;47.222;18.670;2022-09-12T04:41:49;100093.75;;;12.52;100.00
67052;BME280;53957;47.222;18.670;2022-09-12T04:44:53;100096.31;;;12.57;100.00
67052;BME280;53957;47.222;18.670;2022-09-12T04:48:16;100098.09;;;12.62;100.00
67052;BME280;53957;47.222;18.670;2022-09-12T04:51:28;100100.78;;;12.62;100.00
67052;BME280;53957;47.222;18.670;2022-09-12T04:54:31;100112.44;;;12.66;100.00
67052;BME280;53957;47.222;18.670;2022-09-12T04:57:35;100120.47;;;12.66;100.00
67052;BME280;53957;47.222;18.670;2022-09-12T05:04:10;100133.28;;;12.69;100.00
67052;BME280;53957;47.222;18.670;2022-09-12T05:07:35;100135.72;;;12.80;100.00
67052;BME280;53957;47.222;18.670;2022-09-12T05:10:38;100139.38;;;12.84;100.00
67052;BME280;53957;47.222;18.670;2022-09-12T05:13:50;100134.72;;;12.89;100.00
67052;BME280;53957;47.222;18.670;2022-09-12T05:17:02;100137.56;;;13.07;100.00
67052;BME280;53957;47.222;18.670;2022-09-12T05:20:34;100145.59;;;13.21;100.00
67052;BME280;53957;47.222;18.670;2022-09-12T05:23:50;100149.81;;;13.22;100.00
67052;BME280;53957;47.222;18.670;2022-09-12T05:27:14;100153.38;;;13.45;100.00
67052;BME280;53957;47.222;18.670;2022-09-12T05:34:13;100162.28;;;13.55;100.00
67052;BME280;53957;47.222;18.670;2022-09-12T06:38:40;100178.78;;;16.02;97.36
67052;BME280;53957;47.222;18.670;2022-09-12T06:42:04;100170.38;;;16.12;97.44
67052;BME280;53957;47.222;18.670;2022-09-12T06:45:08;100169.97;;;16.40;96.24
67052;BME280;53957;47.222;18.670;2022-09-12T06:48:12;100175.94;;;16.54;95.37
67052;BME280;53957;47.222;18.670;2022-09-12T06:51:18;100173.00;;;16.68;93.08
67052;BME280;53957;47.222;18.670;2022-09-12T06:54:22;100178.88;;;17.00;93.26
67052;BME280;53957;47.222;18.670;2022-09-12T06:57:26;100189.37;;;16.93;93.81
67052;BME280;53957;47.222;18.670;2022-09-12T07:00:32;100186.72;;;17.14;92.36
67052;BME280;53957;47.222;18.670;2022-09-12T07:03:36;100177.16;;;17.59;89.91
67052;BME280;53957;47.222;18.670;2022-09-12T07:06:47;100176.25;;;17.55;88.82
67052;BME280;53957;47.222;18.670;2022-09-12T07:09:53;100172.69;;;17.63;88.88
67052;BME280;53957;47.222;18.670;2022-09-12T07:13:00;100174.22;;;17.85;86.00
67052;BME280;53957;47.222;18.670;2022-09-12T07:16:04;100183.69;;;17.92;84.79
67052;BME280;53957;47.222;18.670;2022-09-12T07:19:08;100175.13;;;17.90;86.13
67052;BME280;53957;47.222;18.670;2022-09-12T07:22:11;100177.34;;;18.09;84.84
67052;BME280;53957;47.222;18.670;2022-09-12T07:25:14;100177.28;;;18.42;85.37
67052;BME280;53957;47.222;18.670;2022-09-12T07:28:31;100181.34;;;18.36;84.37
67052;BME280;53957;47.222;18.670;2022-09-12T07:31:43;100182.69;;;18.55;83.09
67052;BME280;53957;47.222;18.670;2022-09-12T07:35:26;100187.31;;;18.54;81.85
67052;BME280;53957;47.222;18.670;2022-09-12T07:38:29;100194.28;;;18.92;79.85
67052;BME280;53957;47.222;18.670;2022-09-12T07:41:32;100197.66;;;19.14;78.87
67052;BME280;53957;47.222;18.670;2022-09-12T07:44:38;100207.31;;;19.27;79.67
67052;BME280;53957;47.222;18.670;2022-09-12T07:47:41;100212.00;;;19.43;79.03
67052;BME280;53957;47.222;18.670;2022-09-12T07:50:45;100214.72;;;19.71;75.96
67052;BME280;53957;47.222;18.670;2022-09-12T07:53:48;100212.38;;;19.70;78.74
67052;BME280;53957;47.222;18.670;2022-09-12T07:56:52;100214.91;;;19.50;78.81
67052;BME280;53957;47.222;18.670;2022-09-12T07:59:55;100216.75;;;19.74;76.88
67052;BME280;53957;47.222;18.670;2022-09-12T08:02:58;100216.63;;;19.42;77.69
67052;BME280;53957;47.222;18.670;2022-09-12T08:06:10;100206.53;;;19.55;76.05
67052;BME280;53957;47.222;18.670;2022-09-12T08:09:14;100208.38;;;19.51;75.23
67052;BME280;53957;47.222;18.670;2022-09-12T08:12:19;100218.44;;;19.67;76.25
67052;BME280;53957;47.222;18.670;2022-09-12T08:15:22;100215.59;;;19.88;76.43
67052;BME280;53957;47.222;18.670;2022-09-12T08:19:05;100215.69;;;19.79;74.15
67052;BME280;53957;47.222;18.670;2022-09-12T08:22:08;100212.41;;;20.14;75.84
67052;BME280;53957;47.222;18.670;2022-09-12T08:25:11;100213.53;;;20.13;75.91
67052;BME280;53957;47.222;18.670;2022-09-12T08:28:14;100200.38;;;20.27;72.87
67052;BME280;53957;47.222;18.670;2022-09-12T08:31:19;100208.50;;;20.59;72.50
67052;BME280;53957;47.222;18.670;2022-09-12T08:34:23;100207.09;;;20.34;71.46
67052;BME280;53957;47.222;18.670;2022-09-12T08:37:30;100212.34;;;20.58;74.33
67052;BME280;53957;47.222;18.670;2022-09-12T08:40:43;100202.81;;;21.16;72.38
67052;BME280;53957;47.222;18.670;2022-09-12T08:50:33;100206.81;;;20.71;69.97
67052;BME280;53957;47.222;18.670;2022-09-12T08:53:37;100206.94;;;21.10;69.98
67052;BME280;53957;47.222;18.670;2022-09-12T08:56:42;100200.38;;;21.11;70.73
67052;BME280;53957;47.222;18.670;2022-09-12T08:59:45;100201.81;;;21.24;69.96
67052;BME280;53957;47.222;18.670;2022-09-12T09:03:07;100202.63;;;21.45;65.94
67052;BME280;53957;47.222;18.670;2022-09-12T09:17:54;100192.87;;;21.60;63.21
67052;BME280;53957;47.222;18.670;2022-09-12T09:25:07;100185.53;;;22.26;61.00
67052;BME280;53957;47.222;18.670;2022-09-12T09:28:34;100186.91;;;21.74;64.88
67052;BME280;53957;47.222;18.670;2022-09-12T09:31:51;100179.91;;;22.15;64.86
67052;BME280;53957;47.222;18.670;2022-09-12T09:46:08;100184.06;;;23.43;57.88
67052;BME280;53957;47.222;18.670;2022-09-12T09:49:14;100181.94;;;23.60;58.09
67052;BME280;53957;47.222;18.670;2022-09-12T09:52:24;100186.09;;;22.89;57.68
67052;BME280;53957;47.222;18.670;2022-09-12T09:55:33;100182.56;;;22.35;62.19
67052;BME280;53957;47.222;18.670;2022-09-12T10:02:25;100175.66;;;21.95;63.23
67052;BME280;53957;47.222;18.670;2022-09-12T10:06:36;100180.91;;;22.30;65.03
67052;BME280;53957;47.222;18.670;2022-09-12T10:10:25;100184.09;;;22.86;63.00
67052;BME280;53957;47.222;18.670;2022-09-12T10:14:00;100180.88;;;22.50;61.60
67052;BME280;53957;47.222;18.670;2022-09-12T10:20:43;100177.56;;;21.32;65.49
67052;BME280;53957;47.222;18.670;2022-09-12T10:24:33;100169.50;;;21.75;63.84
67052;BME280;53957;47.222;18.670;2022-09-12T10:28:52;100173.38;;;21.97;59.43
67052;BME280;53957;47.222;18.670;2022-09-12T10:32:04;100167.03;;;22.12;64.74
67052;BME280;53957;47.222;18.670;2022-09-12T10:35:23;100170.62;;;22.66;62.43
67052;BME280;53957;47.222;18.670;2022-09-12T10:39:17;100167.09;;;22.39;64.49
67052;BME280;53957;47.222;18.670;2022-09-12T10:42:44;100158.41;;;21.83;62.43
67052;BME280;53957;47.222;18.670;2022-09-12T10:49:24;100164.34;;;22.62;59.65
67052;BME280;53957;47.222;18.670;2022-09-12T10:52:47;100163.28;;;22.67;59.71
67052;BME280;53957;47.222;18.670;2022-09-12T10:56:17;100166.91;;;22.78;58.08
67052;BME280;53957;47.222;18.670;2022-09-12T11:00:02;100161.91;;;22.54;59.75
67052;BME280;53957;47.222;18.670;2022-09-12T11:03:23;100159.84;;;21.77;60.92
67052;BME280;53957;47.222;18.670;2022-09-12T11:17:47;100169.34;;;20.25;70.79
67052;BME280;53957;47.222;18.670;2022-09-12T11:27:46;100157.69;;;20.56;68.30
67052;BME280;53957;47.222;18.670;2022-09-12T11:34:57;100165.41;;;20.38;68.57
67052;BME280;53957;47.222;18.670;2022-09-12T11:38:30;100166.78;;;20.32;70.78
67052;BME280;53957;47.222;18.670;2022-09-12T11:41:59;100165.66;;;20.33;71.26
67052;BME280;53957;47.222;18.670;2022-09-12T11:45:28;100164.38;;;20.95;71.05
67052;BME280;53957;47.222;18.670;2022-09-12T11:48:47;100166.97;;;21.07;67.64
67052;BME280;53957;47.222;18.670;2022-09-12T11:55:23;100158.78;;;21.43;67.81
67052;BME280;53957;47.222;18.670;2022-09-12T11:58:41;100149.66;;;21.51;66.92
67052;BME280;53957;47.222;18.670;2022-09-12T12:01:50;100139.69;;;22.25;62.97
67052;BME280;53957;47.222;18.670;2022-09-12T12:05:19;100135.87;;;22.06;66.05
67052;BME280;53957;47.222;18.670;2022-09-12T12:08:25;100137.66;;;22.41;64.99
67052;BME280;53957;47.222;18.670;2022-09-12T12:12:04;100129.41;;;22.61;62.67
67052;BME280;53957;47.222;18.670;2022-09-12T12:15:13;100128.84;;;22.78;60.31
67052;BME280;53957;47.222;18.670;2022-09-12T12:18:25;100124.09;;;22.72;58.29
67052;BME280;53957;47.222;18.670;2022-09-12T12:21:48;100121.63;;;22.90;58.32
67052;BME280;53957;47.222;18.670;2022-09-12T12:28:07;100116.41;;;22.77;55.50
67052;BME280;53957;47.222;18.670;2022-09-12T12:31:20;100109.84;;;22.51;60.94
67052;BME280;53957;47.222;18.670;2022-09-12T12:34:40;100111.41;;;22.29;59.78
67052;BME280;53957;47.222;18.670;2022-09-12T12:37:57;100103.91;;;22.73;61.42
67052;BME280;53957;47.222;18.670;2022-09-12T12:44:58;100117.88;;;22.21;61.59
67052;BME280;53957;47.222;18.670;2022-09-12T12:52:14;100110.16;;;20.95;68.73
67052;BME280;53957;47.222;18.670;2022-09-12T12:55:27;100124.44;;;20.24;75.61
67052;BME280;53957;47.222;18.670;2022-09-12T12:58:36;100114.44;;;19.80;78.40
67052;BME280;53957;47.222;18.670;2022-09-12T13:01:46;100131.09;;;19.09;87.26
67052;BME280;53957;47.222;18.670;2022-09-12T13:04:59;100122.31;;;19.00;86.37
67052;BME280;53957;47.222;18.670;2022-09-12T13:11:36;100122.69;;;18.61;89.44
67052;BME280;53957;47.222;18.670;2022-09-12T13:17:58;100108.00;;;19.40;85.49
67052;BME280;53957;47.222;18.670;2022-09-12T13:21:09;100113.91;;;19.58;82.68
67052;BME280;53957;47.222;18.670;2022-09-12T13:24:44;100105.44;;;19.60;83.25
67052;BME280;53957;47.222;18.670;2022-09-12T13:31:23;100098.69;;;19.54;82.02
67052;BME280;53957;47.222;18.670;2022-09-12T13:34:36;100104.06;;;19.38;84.03
67052;BME280;53957;47.222;18.670;2022-09-12T13:37:57;100093.06;;;19.75;83.00
67052;BME280;53957;47.222;18.670;2022-09-12T13:44:17;100088.94;;;19.81;80.48
67052;BME280;53957;47.222;18.670;2022-09-12T13:47:33;100092.88;;;19.68;80.30
67052;BME280;53957;47.222;18.670;2022-09-12T13:50:59;100091.53;;;19.61;77.78
67052;BME280;53957;47.222;18.670;2022-09-12T13:54:04;100082.72;;;19.49;77.74
67052;BME280;53957;47.222;18.670;2022-09-12T13:57:32;100081.16;;;19.47;76.71
67052;BME280;53957;47.222;18.670;2022-09-12T14:03:56;100086.06;;;19.29;78.81
67052;BME280;53957;47.222;18.670;2022-09-12T14:07:22;100098.63;;;19.66;74.83
67052;BME280;53957;47.222;18.670;2022-09-12T14:10:36;100093.78;;;20.20;74.17
67052;BME280;53957;47.222;18.670;2022-09-12T14:13:40;100102.50;;;20.45;72.31
67052;BME280;53957;47.222;18.670;2022-09-12T14:16:44;100093.12;;;20.58;69.92
67052;BME280;53957;47.222;18.670;2022-09-12T14:19:47;100093.66;;;20.84;70.49
67052;BME280;53957;47.222;18.670;2022-09-12T14:23:30;100095.88;;;20.78;69.59
67052;BME280;53957;47.222;18.670;2022-09-12T14:26:54;100089.75;;;20.81;67.23
67052;BME280;53957;47.222;18.670;2022-09-12T14:30:20;100096.66;;;20.79;67.71
67052;BME280;53957;47.222;18.670;2022-09-12T14:33:23;100084.75;;;20.83;67.56
67052;BME280;53957;47.222;18.670;2022-09-12T14:36:30;100087.91;;;21.05;66.32
67052;BME280;53957;47.222;18.670;2022-09-12T14:39:43;100084.84;;;21.06;66.67
67052;BME280;53957;47.222;18.670;2022-09-12T14:43:32;100086.84;;;21.10;65.47
67052;BME280;53957;47.222;18.670;2022-09-12T14:46:38;100096.09;;;20.89;66.99
67052;BME280;53957;47.222;18.670;2022-09-12T14:49:44;100077.47;;;20.87;67.68
67052;BME280;53957;47.222;18.670;2022-09-12T14:53:01;100095.47;;;20.96;67.19
67052;BME280;53957;47.222;18.670;2022-09-12T14:56:15;100077.19;;;20.92;65.85
67052;BME280;53957;47.222;18.670;2022-09-12T15:00:25;100074.22;;;20.78;68.31
67052;BME280;53957;47.222;18.670;2022-09-12T15:03:53;100069.56;;;20.79;66.17
67052;BME280;53957;47.222;18.670;2022-09-12T15:11:07;100078.69;;;20.54;64.88
67052;BME280;53957;47.222;18.670;2022-09-12T15:15:30;100075.31;;;20.41;63.34
67052;BME280;53957;47.222;18.670;2022-09-12T15:19:06;100072.19;;;20.23;63.62
67052;BME280;53957;47.222;18.670;2022-09-12T15:22:14;100068.38;;;20.08;63.83
67052;BME280;53957;47.222;18.670;2022-09-12T15:25:17;100071.44;;;20.07;63.36
67052;BME280;53957;47.222;18.670;2022-09-12T15:29:03;100065.84;;;20.16;63.20
67052;BME280;53957;47.222;18.670;2022-09-12T15:32:12;100066.28;;;20.02;66.10
67052;BME280;53957;47.222;18.670;2022-09-12T15:35:23;100063.84;;;19.97;65.63
67052;BME280;53957;47.222;18.670;2022-09-12T15:38:27;100059.47;;;19.92;66.03
67052;BME280;53957;47.222;18.670;2022-09-12T15:41:32;100062.84;;;19.73;66.55
67052;BME280;53957;47.222;18.670;2022-09-12T15:44:36;100064.41;;;19.74;67.00
67052;BME280;53957;47.222;18.670;2022-09-12T15:48:30;100060.31;;;19.80;67.67
67052;BME280;53957;47.222;18.670;2022-09-12T16:00:05;100066.06;;;19.62;69.21
67052;BME280;53957;47.222;18.670;2022-09-12T16:03:57;100068.00;;;19.62;69.40
67052;BME280;53957;47.222;18.670;2022-09-12T16:07:45;100069.47;;;19.75;67.14
67052;BME280;53957;47.222;18.670;2022-09-12T16:11:43;100067.56;;;19.76;68.60
67052;BME280;53957;47.222;18.670;2022-09-12T16:15:08;100067.47;;;19.56;67.14
67052;BME280;53957;47.222;18.670;2022-09-12T16:18:16;100056.59;;;19.40;69.91
67052;BME280;53957;47.222;18.670;2022-09-12T16:21:19;100057.19;;;19.18;69.31
67052;BME280;53957;47.222;18.670;2022-09-12T16:24:31;100054.03;;;19.15;69.10
67052;BME280;53957;47.222;18.670;2022-09-12T17:13:01;100048.81;;;17.46;78.01
67052;BME280;53957;47.222;18.670;2022-09-12T17:16:08;100052.25;;;17.34;77.71
67052;BME280;53957;47.222;18.670;2022-09-12T17:19:26;100065.16;;;17.28;78.02
67052;BME280;53957;47.222;18.670;2022-09-12T17:22:52;100064.19;;;17.12;78.84
67052;BME280;53957;47.222;18.670;2022-09-12T17:25:56;100063.09;;;16.92;79.61
67052;BME280;53957;47.222;18.670;2022-09-12T17:29:20;100073.72;;;16.88;80.53
67052;BME280;53957;47.222;18.670;2022-09-12T17:32:50;100071.09;;;16.79;81.25
67052;BME280;53957;47.222;18.670;2022-09-12T17:36:36;100091.28;;;16.64;82.34
67052;BME280;53957;47.222;18.670;2022-09-12T17:40:02;100081.72;;;16.46;83.51
67052;BME280;53957;47.222;18.670;2022-09-12T17:43:06;100090.66;;;16.37;83.94
67052;BME280;53957;47.222;18.670;2022-09-12T17:46:38;100093.44;;;16.20;86.08
67052;BME280;53957;47.222;18.670;2022-09-12T17:49:46;100101.09;;;16.00;86.26
67052;BME280;53957;47.222;18.670;2022-09-12T17:53:30;100094.94;;;15.91;87.43
67052;BME280;53957;47.222;18.670;2022-09-12T17:56:35;100089.75;;;15.86;87.86
67052;BME280;53957;47.222;18.670;2022-09-12T17:59:38;100083.56;;;15.76;88.46
67052;BME280;53957;47.222;18.670;2022-09-12T18:02:42;100093.06;;;15.74;88.94
67052;BME280;53957;47.222;18.670;2022-09-12T18:05:54;100088.50;;;15.66;88.87
67052;BME280;53957;47.222;18.670;2022-09-12T18:09:02;100094.06;;;15.52;89.26
67052;BME280;53957;47.222;18.670;2022-09-12T18:12:09;100089.97;;;15.45;89.57
67052;BME280;53957;47.222;18.670;2022-09-12T18:15:12;100094.41;;;15.33;90.59
67052;BME280;53957;47.222;18.670;2022-09-12T18:18:32;100100.25;;;15.26;90.09
67052;BME280;53957;47.222;18.670;2022-09-12T18:21:36;100110.38;;;15.20;91.22
67052;BME280;53957;47.222;18.670;2022-09-12T18:24:39;100102.31;;;15.11;92.39
67052;BME280;53957;47.222;18.670;2022-09-12T18:27:41;100107.97;;;15.10;93.05
67052;BME280;53957;47.222;18.670;2022-09-12T18:30:44;100116.53;;;14.94;94.75
67052;BME280;53957;47.222;18.670;2022-09-12T18:33:47;100113.97;;;14.72;94.35
67052;BME280;53957;47.222;18.670;2022-09-12T18:36:51;100116.00;;;14.75;94.21
67052;BME280;53957;47.222;18.670;2022-09-12T18:39:56;100121.38;;;14.66;95.09
67052;BME280;53957;47.222;18.670;2022-09-12T18:42:59;100122.25;;;14.53;94.66
67052;BME280;53957;47.222;18.670;2022-09-12T18:46:04;100115.56;;;14.41;95.70
67052;BME280;53957;47.222;18.670;2022-09-12T18:49:08;100112.53;;;14.25;97.18
67052;BME280;53957;47.222;18.670;2022-09-12T18:52:12;100117.50;;;14.09;97.92
67052;BME280;53957;47.222;18.670;2022-09-12T18:55:16;100120.31;;;14.04;97.53
67052;BME280;53957;47.222;18.670;2022-09-12T18:58:19;100124.59;;;14.05;97.84
67052;BME280;53957;47.222;18.670;2022-09-12T19:01:42;100122.88;;;14.09;96.95
67052;BME280;53957;47.222;18.670;2022-09-12T19:04:45;100129.91;;;13.96;97.69
67052;BME280;53957;47.222;18.670;2022-09-12T19:07:48;100130.81;;;13.92;98.12
67052;BME280;53957;47.222;18.670;2022-09-12T19:10:55;100134.72;;;13.85;97.71
67052;BME280;53957;47.222;18.670;2022-09-12T19:14:01;100133.62;;;13.87;98.38
67052;BME280;53957;47.222;18.670;2022-09-12T19:17:04;100125.59;;;13.87;98.93
67052;BME280;53957;47.222;18.670;2022-09-12T19:20:07;100121.09;;;13.73;98.94
67052;BME280;53957;47.222;18.670;2022-09-12T19:23:10;100120.88;;;13.61;100.00
67052;BME280;53957;47.222;18.670;2022-09-12T19:26:33;100125.28;;;13.65;100.00
67052;BME280;53957;47.222;18.670;2022-09-12T19:29:35;100117.44;;;13.69;100.00
67052;BME280;53957;47.222;18.670;2022-09-12T19:32:38;100127.69;;;13.67;100.00
67052;BME280;53957;47.222;18.670;2022-09-12T19:35:41;100122.44;;;13.62;100.00
67052;BME280;53957;47.222;18.670;2022-09-12T19:38:44;100126.09;;;13.66;100.00
67052;BME280;53957;47.222;18.670;2022-09-12T19:41:48;100126.94;;;13.75;98.36
67052;BME280;53957;47.222;18.670;2022-09-12T19:44:54;100119.38;;;13.77;100.00
67052;BME280;53957;47.222;18.670;2022-09-12T19:47:57;100116.16;;;13.66;100.00
67052;BME280;53957;47.222;18.670;2022-09-12T19:51:01;100119.81;;;13.71;98.51
67052;BME280;53957;47.222;18.670;2022-09-12T19:54:05;100126.22;;;13.61;100.00
67052;BME280;53957;47.222;18.670;2022-09-12T19:57:09;100125.78;;;13.67;99.89
67052;BME280;53957;47.222;18.670;2022-09-12T20:00:13;100118.47;;;13.59;100.00
67052;BME280;53957;47.222;18.670;2022-09-12T20:03:16;100122.84;;;13.55;100.00
67052;BME280;53957;47.222;18.670;2022-09-12T20:06:19;100123.16;;;13.53;98.24
67052;BME280;53957;47.222;18.670;2022-09-12T20:09:22;100126.34;;;13.56;99.28
67052;BME280;53957;47.222;18.670;2022-09-12T20:12:25;100131.16;;;13.45;98.11
67052;BME280;53957;47.222;18.670;2022-09-12T20:15:28;100127.56;;;13.35;100.00
67052;BME280;53957;47.222;18.670;2022-09-12T20:18:31;100127.38;;;13.32;98.87
67052;BME280;53957;47.222;18.670;2022-09-12T20:21:35;100126.09;;;13.29;100.00
67052;BME280;53957;47.222;18.670;2022-09-12T20:24:38;100124.41;;;13.33;100.00
67052;BME280;53957;47.222;18.670;2022-09-12T20:27:41;100120.09;;;13.24;100.00
67052;BME280;53957;47.222;18.670;2022-09-12T20:30:43;100119.19;;;13.14;100.00
67052;BME280;53957;47.222;18.670;2022-09-12T20:33:46;100118.91;;;13.16;98.62
67052;BME280;53957;47.222;18.670;2022-09-12T20:36:53;100118.13;;;13.15;98.39
67052;BME280;53957;47.222;18.670;2022-09-12T20:39:56;100122.78;;;13.10;98.52
67052;BME280;53957;47.222;18.670;2022-09-12T20:42:59;100116.56;;;13.00;99.80
67052;BME280;53957;47.222;18.670;2022-09-12T20:46:06;100117.97;;;12.98;99.64
67052;BME280;53957;47.222;18.670;2022-09-12T20:49:11;100120.75;;;12.93;100.00
67052;BME280;53957;47.222;18.670;2022-09-12T20:52:14;100120.06;;;12.87;100.00
67052;BME280;53957;47.222;18.670;2022-09-12T20:55:16;100119.66;;;12.80;100.00
67052;BME280;53957;47.222;18.670;2022-09-12T20:58:22;100120.28;;;12.63;100.00